Time;durP1;ratioP1;P1;durP2;ratioP2;P2;SDS_P1;SDS_P2;PMS_P1;PMS_P2;Temp;Humidity;BMP_temperature;BMP_pressure;BME280_temperature;BME280_humidity;BME280_pressure;Samples;Min_cycle;Max_cycle;Signal;HPM_P1;HPM_P2
2022/06/11 00:01:34;;;;;;;6.90;4.57;;;;;;;;;;772850;178;918926;-74
2022/06/11 00:04:01;;;;;;;7.87;4.50;;;;;;;;;;778731;177;919436;-75
2022/06/11 00:06:26;;;;;;;5.90;5.10;;;;;;;;;;761652;181;1040504;-74
2022/06/11 00:08:51;;;;;;;7.13;4.90;;;;;;;;;;771880;178;919125;-75
2022/06/11 00:11:17;;;;;;;6.77;4.53;;;;;;;;;;779708;179;815630;-74
2022/06/11 00:13:43;;;;;;;7.17;4.93;;;;;;;;;;776375;178;816831;-74
2022/06/11 00:16:09;;;;;;;7.87;5.00;;;;;;;;;;774464;178;918701;-74
2022/06/11 00:18:35;;;;;;;6.78;4.57;;;;;;;;;;768154;181;919137;-74
2022/06/11 00:21:01;;;;;;;5.20;3.90;;;;;;;;;;772160;180;917090;-74
2022/06/11 00:23:27;;;;;;;8.00;4.90;;;;;;;;;;763306;179;919831;-74
2022/06/11 00:25:52;;;;;;;11.48;4.80;;;;;;;;;;777472;177;919107;-74
2022/06/11 00:28:19;;;;;;;7.10;5.37;;;;;;;;;;783648;180;815822;-74
2022/06/11 00:30:44;;;;;;;6.80;4.20;;;;;;;;;;774478;180;921578;-74
2022/06/11 00:33:10;;;;;;;12.73;4.87;;;;;;;;;;777527;179;917939;-74
2022/06/11 00:35:36;;;;;;;5.60;4.93;;;;;;;;;;778730;178;1023375;-74
2022/06/11 00:38:02;;;;;;;7.25;4.95;;;;;;;;;;768048;180;919363;-74
2022/06/11 00:40:28;;;;;;;9.83;4.40;;;;;;;;;;770659;181;919727;-73
2022/06/11 00:42:53;;;;;;;13.63;4.40;;;;;;;;;;779485;180;919656;-74
2022/06/11 00:45:37;;;;;;;14.27;4.70;;;;;;;;;;767638;180;921370;-73
2022/06/11 00:48:07;;;;;;;6.73;4.93;;;;;;;;;;768927;181;918473;-74
2022/06/11 00:50:33;;;;;;;4.70;3.53;;;;;;;;;;768283;180;916729;-74
2022/06/11 00:52:59;;;;;;;7.90;4.17;;;;;;;;;;772362;180;919090;-74
2022/06/11 00:55:25;;;;;;;7.00;4.23;;;;;;;;;;776665;180;918539;-74
2022/06/11 00:58:04;;;;;;;17.40;5.47;;;;;;;;;;774446;180;918086;-74
2022/06/11 01:00:29;;;;;;;6.93;4.70;;;;;;;;;;775999;178;919880;-74
2022/06/11 01:02:55;;;;;;;32.73;7.33;;;;;;;;;;771762;181;815541;-72
2022/06/11 01:05:23;;;;;;;9.80;5.30;;;;;;;;;;776148;180;918514;-72
2022/06/11 01:07:53;;;;;;;7.93;5.37;;;;;;;;;;774248;178;925551;-73
2022/06/11 01:10:33;;;;;;;8.30;6.20;;;;;;;;;;767576;178;919226;-73
2022/06/11 01:13:05;;;;;;;11.03;5.20;;;;;;;;;;776001;178;915008;-74
2022/06/11 01:15:32;;;;;;;6.83;5.27;;;;;;;;;;773321;177;915191;-74
2022/06/11 01:17:57;;;;;;;10.43;5.80;;;;;;;;;;779251;178;915584;-75
2022/06/11 01:20:26;;;;;;;8.80;5.70;;;;;;;;;;777551;178;811647;-75
2022/06/11 01:22:57;;;;;;;6.83;5.10;;;;;;;;;;775050;181;914880;-75
2022/06/11 01:25:27;;;;;;;5.97;5.23;;;;;;;;;;771855;178;917762;-74
2022/06/11 01:27:54;;;;;;;7.07;5.43;;;;;;;;;;779184;180;1021712;-74
2022/06/11 01:30:22;;;;;;;9.90;5.93;;;;;;;;;;773992;178;919162;-74
2022/06/11 01:32:48;;;;;;;9.43;5.90;;;;;;;;;;768816;181;920160;-74
2022/06/11 01:35:21;;;;;;;9.97;6.10;;;;;;;;;;772518;178;919997;-73
2022/06/11 01:37:49;;;;;;;7.63;5.73;;;;;;;;;;766775;183;918026;-73
2022/06/11 01:40:20;;;;;;;7.73;6.93;;;;;;;;;;773921;180;914360;-74
2022/06/11 01:42:50;;;;;;;11.07;8.07;;;;;;;;;;773447;180;920706;-74
2022/06/11 01:45:16;;;;;;;9.35;6.68;;;;;;;;;;773536;180;919450;-75
2022/06/11 01:47:42;;;;;;;10.40;7.10;;;;;;;;;;774809;180;916138;-75
2022/06/11 01:50:08;;;;;;;8.80;6.40;;;;;;;;;;772152;178;857974;-73
2022/06/11 01:52:35;;;;;;;7.70;6.80;;;;;;;;;;773567;178;914919;-75
2022/06/11 01:55:07;;;;;;;9.40;6.90;;;;;;;;;;779279;181;915201;-75
2022/06/11 01:57:35;;;;;;;9.00;6.20;;;;;;;;;;775819;180;916891;-74
2022/06/11 02:00:01;;;;;;;10.13;6.60;;;;;;;;;;775998;177;814203;-74
2022/06/11 02:02:43;;;;;;;8.20;6.10;;;;;;;;;;776153;177;919899;-74
2022/06/11 02:05:26;;;;;;;7.73;6.00;;;;;;;;;;768490;180;916536;-73
2022/06/11 02:07:55;;;;;;;11.30;6.80;;;;;;;;;;770947;179;916702;-73
2022/06/11 02:10:23;;;;;;;12.63;7.03;;;;;;;;;;769925;181;916020;-72
2022/06/11 02:12:49;;;;;;;14.30;10.90;;;;;;;;;;771814;180;915189;-74
2022/06/11 02:15:17;;;;;;;10.13;8.40;;;;;;;;;;774435;177;918722;-73
2022/06/11 02:17:43;;;;;;;10.53;7.10;;;;;;;;;;774614;178;919131;-72
2022/06/11 02:20:09;;;;;;;8.57;7.10;;;;;;;;;;781329;180;918829;-73
2022/06/11 02:22:34;;;;;;;10.53;7.30;;;;;;;;;;776327;178;919128;-73
2022/06/11 02:25:07;;;;;;;8.87;6.07;;;;;;;;;;772478;180;920184;-74
2022/06/11 02:27:32;;;;;;;11.73;7.23;;;;;;;;;;772838;178;920399;-73
2022/06/11 02:29:58;;;;;;;10.57;6.30;;;;;;;;;;765762;181;919314;-73
2022/06/11 02:32:24;;;;;;;12.00;6.13;;;;;;;;;;762310;180;918562;-73
2022/06/11 02:34:50;;;;;;;9.20;7.67;;;;;;;;;;772929;178;942810;-72
2022/06/11 02:37:17;;;;;;;8.30;6.20;;;;;;;;;;778235;180;919294;-72
2022/06/11 02:39:42;;;;;;;7.53;5.80;;;;;;;;;;775153;181;918234;-72
2022/06/11 02:42:08;;;;;;;6.60;5.60;;;;;;;;;;774141;180;918748;-72
2022/06/11 02:44:35;;;;;;;10.20;6.50;;;;;;;;;;774969;180;918321;-72
2022/06/11 02:47:00;;;;;;;10.07;7.87;;;;;;;;;;772598;178;919170;-71
2022/06/11 02:49:26;;;;;;;11.13;7.20;;;;;;;;;;776280;179;919562;-72
2022/06/11 02:51:52;;;;;;;12.07;8.40;;;;;;;;;;776510;177;918670;-71
2022/06/11 02:54:18;;;;;;;9.57;7.23;;;;;;;;;;778763;180;916301;-71
2022/06/11 02:56:43;;;;;;;10.07;8.10;;;;;;;;;;754839;181;918604;-72
2022/06/11 02:59:09;;;;;;;11.45;6.97;;;;;;;;;;773530;177;918314;-71
2022/06/11 03:01:35;;;;;;;10.20;7.57;;;;;;;;;;780392;180;918604;-71
2022/06/11 03:04:01;;;;;;;12.27;8.70;;;;;;;;;;773735;178;1020447;-72
2022/06/11 03:06:27;;;;;;;13.73;7.20;;;;;;;;;;776848;180;919429;-72
2022/06/11 03:08:53;;;;;;;11.70;5.30;;;;;;;;;;780664;181;918506;-72
2022/06/11 03:11:18;;;;;;;8.67;6.47;;;;;;;;;;773907;180;918478;-71
2022/06/11 03:13:44;;;;;;;7.10;5.97;;;;;;;;;;774489;177;919215;-70
2022/06/11 03:16:11;;;;;;;6.60;5.90;;;;;;;;;;775204;181;918356;-70
2022/06/11 03:18:36;;;;;;;24.73;7.10;;;;;;;;;;774700;181;918192;-70
2022/06/11 03:21:02;;;;;;;9.80;6.10;;;;;;;;;;772508;179;918977;-70
2022/06/11 03:23:29;;;;;;;10.88;5.97;;;;;;;;;;773747;178;918293;-70
2022/06/11 03:25:54;;;;;;;7.27;5.50;;;;;;;;;;779110;180;907144;-70
2022/06/11 03:28:19;;;;;;;7.47;5.20;;;;;;;;;;773083;181;919244;-71
2022/06/11 03:30:45;;;;;;;14.00;6.60;;;;;;;;;;769241;181;919201;-71
2022/06/11 03:33:11;;;;;;;10.63;6.60;;;;;;;;;;778216;180;915548;-70
2022/06/11 03:35:37;;;;;;;11.83;5.60;;;;;;;;;;777074;178;918518;-71
2022/06/11 03:38:03;;;;;;;9.53;6.40;;;;;;;;;;779806;180;629292;-71
2022/06/11 03:40:29;;;;;;;7.97;7.10;;;;;;;;;;781910;180;917363;-70
2022/06/11 03:42:55;;;;;;;10.57;7.87;;;;;;;;;;775155;180;917664;-71
2022/06/11 03:45:21;;;;;;;10.77;8.60;;;;;;;;;;762922;178;919376;-70
2022/06/11 03:47:46;;;;;;;12.13;8.53;;;;;;;;;;763880;179;920696;-69
2022/06/11 03:50:14;;;;;;;11.80;7.87;;;;;;;;;;775679;179;919016;-70
2022/06/11 03:52:40;;;;;;;9.33;8.23;;;;;;;;;;772252;180;919205;-70
2022/06/11 03:55:06;;;;;;;10.70;8.57;;;;;;;;;;772958;178;918807;-70
2022/06/11 03:57:33;;;;;;;12.93;8.23;;;;;;;;;;779660;181;919434;-69
2022/06/11 03:59:58;;;;;;;11.40;8.57;;;;;;;;;;769708;178;619633;-72
2022/06/11 04:02:24;;;;;;;13.20;8.93;;;;;;;;;;776496;180;617785;-71
2022/06/11 04:04:49;;;;;;;11.23;9.40;;;;;;;;;;778721;180;626322;-71
2022/06/11 04:07:15;;;;;;;14.37;9.87;;;;;;;;;;778471;180;917738;-70
2022/06/11 04:09:42;;;;;;;15.80;11.07;;;;;;;;;;775476;180;928407;-70
2022/06/11 04:12:11;;;;;;;17.30;12.07;;;;;;;;;;775615;179;918778;-70
2022/06/11 04:14:34;;;;;;;14.23;11.40;;;;;;;;;;782338;180;918923;-70
2022/06/11 04:17:02;;;;;;;28.30;14.00;;;;;;;;;;771246;178;918936;-70
2022/06/11 04:19:28;;;;;;;18.87;14.00;;;;;;;;;;775354;178;919638;-72
2022/06/11 04:21:53;;;;;;;18.20;13.07;;;;;;;;;;772677;180;919298;-70
2022/06/11 04:24:19;;;;;;;18.87;13.80;;;;;;;;;;768218;177;927486;-73
2022/06/11 04:26:45;;;;;;;18.67;13.20;;;;;;;;;;772810;178;918618;-71
2022/06/11 04:29:11;;;;;;;23.60;13.02;;;;;;;;;;772375;180;919793;-69
2022/06/11 04:31:37;;;;;;;17.37;12.67;;;;;;;;;;772458;178;923126;-70
2022/06/11 04:34:03;;;;;;;26.70;15.07;;;;;;;;;;774242;180;919517;-71
2022/06/11 04:36:29;;;;;;;22.17;12.82;;;;;;;;;;768367;180;918287;-70
2022/06/11 04:38:55;;;;;;;16.03;12.40;;;;;;;;;;779180;179;918929;-70
2022/06/11 04:41:21;;;;;;;16.80;14.03;;;;;;;;;;774771;178;915879;-71
2022/06/11 04:43:47;;;;;;;19.50;13.33;;;;;;;;;;773072;177;1021704;-70
2022/06/11 04:46:12;;;;;;;20.13;11.90;;;;;;;;;;775877;180;919699;-71
2022/06/11 04:48:38;;;;;;;20.30;12.77;;;;;;;;;;769778;180;1137623;-71
2022/06/11 04:51:04;;;;;;;15.90;10.17;;;;;;;;;;771795;180;920038;-71
2022/06/11 04:53:30;;;;;;;14.83;11.20;;;;;;;;;;777306;180;919811;-71
2022/06/11 04:55:56;;;;;;;12.47;10.17;;;;;;;;;;774338;178;919042;-72
2022/06/11 04:58:22;;;;;;;14.23;9.73;;;;;;;;;;775335;180;917724;-73
2022/06/11 05:00:47;;;;;;;15.23;9.03;;;;;;;;;;770193;180;919298;-74
2022/06/11 05:03:13;;;;;;;16.60;10.40;;;;;;;;;;779278;179;919405;-73
2022/06/11 05:05:39;;;;;;;13.70;7.87;;;;;;;;;;773511;180;918928;-72
2022/06/11 05:08:05;;;;;;;9.70;8.10;;;;;;;;;;773636;181;918280;-73
2022/06/11 05:10:31;;;;;;;12.93;9.03;;;;;;;;;;778514;178;919268;-71
2022/06/11 05:12:57;;;;;;;12.07;8.37;;;;;;;;;;769771;178;919409;-73
2022/06/11 05:15:23;;;;;;;15.80;8.10;;;;;;;;;;775083;178;919760;-74
2022/06/11 05:17:48;;;;;;;9.30;7.10;;;;;;;;;;777262;179;920633;-73
2022/06/11 05:20:14;;;;;;;12.80;6.15;;;;;;;;;;775891;178;919755;-72
2022/06/11 05:22:40;;;;;;;11.10;7.13;;;;;;;;;;774707;179;918850;-75
2022/06/11 05:25:06;;;;;;;7.97;6.47;;;;;;;;;;771627;180;920107;-74
2022/06/11 05:27:32;;;;;;;10.80;7.93;;;;;;;;;;772989;177;915609;-73
2022/06/11 05:29:59;;;;;;;9.23;6.60;;;;;;;;;;764144;177;915564;-75
2022/06/11 05:32:24;;;;;;;8.20;6.43;;;;;;;;;;767436;178;915298;-73
2022/06/11 05:34:50;;;;;;;9.83;7.10;;;;;;;;;;775019;180;917210;-73
2022/06/11 05:37:16;;;;;;;8.00;6.67;;;;;;;;;;771869;180;917094;-75
2022/06/11 05:39:41;;;;;;;8.33;6.80;;;;;;;;;;773809;181;914474;-76
2022/06/11 05:42:07;;;;;;;7.03;6.23;;;;;;;;;;779451;181;920460;-74
2022/06/11 05:44:33;;;;;;;10.10;5.83;;;;;;;;;;766501;180;941224;-76
2022/06/11 05:46:59;;;;;;;8.27;6.57;;;;;;;;;;772245;180;919008;-77
2022/06/11 05:49:25;;;;;;;8.57;6.72;;;;;;;;;;776256;179;919181;-74
2022/06/11 05:51:52;;;;;;;12.93;7.37;;;;;;;;;;768113;181;918499;-75
2022/06/11 05:54:18;;;;;;;9.07;6.87;;;;;;;;;;764276;180;918127;-75
2022/06/11 05:56:44;;;;;;;10.00;7.70;;;;;;;;;;769382;178;919133;-75
2022/06/11 05:59:09;;;;;;;10.50;7.87;;;;;;;;;;774207;180;925043;-76
2022/06/11 06:01:35;;;;;;;9.13;7.60;;;;;;;;;;773822;177;979281;-75
2022/06/11 06:04:02;;;;;;;10.03;7.90;;;;;;;;;;779093;179;918612;-76
2022/06/11 06:06:28;;;;;;;12.00;9.63;;;;;;;;;;782511;179;917853;-75
2022/06/11 06:08:54;;;;;;;13.50;9.80;;;;;;;;;;777873;179;920068;-76
2022/06/11 06:11:20;;;;;;;19.90;12.57;;;;;;;;;;779477;179;917987;-77
2022/06/11 06:13:47;;;;;;;12.30;10.17;;;;;;;;;;779715;179;916750;-77
2022/06/11 06:16:14;;;;;;;14.20;10.93;;;;;;;;;;780533;179;628527;-76
2022/06/11 06:18:40;;;;;;;15.00;11.80;;;;;;;;;;780043;179;657795;-76
2022/06/11 06:21:06;;;;;;;13.18;10.75;;;;;;;;;;778530;179;915184;-77
2022/06/11 06:23:32;;;;;;;15.07;11.40;;;;;;;;;;788136;177;616276;-80
2022/06/11 06:25:58;;;;;;;19.10;10.63;;;;;;;;;;782118;178;912012;-75
2022/06/11 06:28:23;;;;;;;16.13;10.60;;;;;;;;;;783445;178;628461;-78
2022/06/11 06:30:49;;;;;;;13.97;11.27;;;;;;;;;;786890;178;632569;-76
2022/06/11 06:33:15;;;;;;;16.73;10.20;;;;;;;;;;782838;178;648477;-78
2022/06/11 06:35:41;;;;;;;12.43;10.05;;;;;;;;;;782261;178;783707;-79
2022/06/11 06:38:07;;;;;;;11.10;9.77;;;;;;;;;;779985;178;918965;-75
2022/06/11 06:40:33;;;;;;;18.60;10.83;;;;;;;;;;779883;178;909073;-77
2022/06/11 06:42:59;;;;;;;12.30;11.00;;;;;;;;;;778459;179;919667;-75
2022/06/11 06:45:26;;;;;;;21.17;10.95;;;;;;;;;;779750;179;918006;-80
2022/06/11 06:47:51;;;;;;;14.40;11.63;;;;;;;;;;787044;179;629212;-75
2022/06/11 06:50:17;;;;;;;15.43;9.70;;;;;;;;;;783668;179;637315;-78
2022/06/11 06:52:43;;;;;;;15.30;9.60;;;;;;;;;;781248;179;918505;-78
2022/06/11 06:55:09;;;;;;;10.70;9.60;;;;;;;;;;785688;179;665825;-78
2022/06/11 06:57:35;;;;;;;11.43;9.57;;;;;;;;;;784288;179;622531;-80
2022/06/11 07:00:02;;;;;;;10.87;9.40;;;;;;;;;;782985;179;628924;-79
2022/06/11 07:02:26;;;;;;;13.60;8.57;;;;;;;;;;781509;179;919171;-74
2022/06/11 07:04:52;;;;;;;10.83;9.10;;;;;;;;;;781671;179;626846;-74
2022/06/11 07:07:18;;;;;;;13.20;9.73;;;;;;;;;;781728;179;674217;-76
2022/06/11 07:09:44;;;;;;;11.12;8.30;;;;;;;;;;778959;179;920395;-77
2022/06/11 07:12:10;;;;;;;8.17;7.00;;;;;;;;;;784697;179;917765;-76
2022/06/11 07:14:36;;;;;;;10.73;8.27;;;;;;;;;;782843;179;629546;-75
2022/06/11 07:17:02;;;;;;;10.30;7.57;;;;;;;;;;778963;179;927496;-77
2022/06/11 07:19:28;;;;;;;10.47;8.07;;;;;;;;;;785635;179;850319;-76
2022/06/11 07:21:53;;;;;;;10.63;7.70;;;;;;;;;;776461;179;913484;-75
2022/06/11 07:24:19;;;;;;;9.80;6.80;;;;;;;;;;782153;179;657357;-74
2022/06/11 07:26:46;;;;;;;9.65;8.30;;;;;;;;;;783321;179;915872;-75
2022/06/11 07:29:12;;;;;;;13.32;7.82;;;;;;;;;;778644;179;881583;-78
2022/06/11 07:31:38;;;;;;;6.97;5.97;;;;;;;;;;779997;179;681904;-76
2022/06/11 07:34:03;;;;;;;9.98;7.12;;;;;;;;;;780397;178;1018718;-79
2022/06/11 07:36:29;;;;;;;7.77;6.40;;;;;;;;;;787277;178;821031;-77
2022/06/11 07:38:55;;;;;;;8.80;6.23;;;;;;;;;;784442;178;912838;-81
2022/06/11 07:41:21;;;;;;;10.23;6.33;;;;;;;;;;782101;178;1015298;-78
2022/06/11 07:43:47;;;;;;;7.47;6.60;;;;;;;;;;787404;178;632548;-75
2022/06/11 07:46:13;;;;;;;7.40;5.83;;;;;;;;;;781381;178;916041;-78
2022/06/11 07:48:38;;;;;;;8.57;6.40;;;;;;;;;;783419;178;898825;-77
2022/06/11 07:51:04;;;;;;;10.53;6.70;;;;;;;;;;785221;178;818632;-76
2022/06/11 07:53:30;;;;;;;6.30;5.10;;;;;;;;;;782362;178;678110;-79
2022/06/11 07:55:56;;;;;;;8.97;5.30;;;;;;;;;;781588;179;785915;-78
2022/06/11 07:58:22;;;;;;;7.97;5.20;;;;;;;;;;782087;179;646423;-79
2022/06/11 08:00:48;;;;;;;11.17;5.00;;;;;;;;;;786769;179;619168;-81
2022/06/11 08:03:14;;;;;;;6.83;5.40;;;;;;;;;;782103;179;927849;-80
2022/06/11 08:05:41;;;;;;;8.53;5.03;;;;;;;;;;783046;179;651983;-79
2022/06/11 08:08:07;;;;;;;6.80;4.60;;;;;;;;;;785573;179;629186;-75
2022/06/11 08:10:31;;;;;;;5.57;4.30;;;;;;;;;;780828;179;633325;-76
2022/06/11 08:12:57;;;;;;;7.30;4.53;;;;;;;;;;780882;179;893858;-82
2022/06/11 08:15:23;;;;;;;6.33;4.67;;;;;;;;;;783607;179;846673;-78
2022/06/11 08:17:49;;;;;;;6.37;4.10;;;;;;;;;;778627;179;919252;-81
2022/06/11 08:20:15;;;;;;;6.10;3.77;;;;;;;;;;780208;179;868963;-81
2022/06/11 08:22:41;;;;;;;8.38;3.72;;;;;;;;;;774652;179;917219;-75
2022/06/11 08:25:06;;;;;;;6.20;3.80;;;;;;;;;;781098;179;672486;-76
2022/06/11 08:27:32;;;;;;;8.83;3.80;;;;;;;;;;783702;179;636150;-74
2022/06/11 08:29:58;;;;;;;7.87;4.13;;;;;;;;;;781173;179;628546;-78
2022/06/11 08:32:24;;;;;;;4.20;3.50;;;;;;;;;;786028;179;622833;-72
2022/06/11 08:34:51;;;;;;;7.70;3.33;;;;;;;;;;781543;179;632864;-78
2022/06/11 08:37:16;;;;;;;6.43;4.10;;;;;;;;;;781856;179;816264;-76
2022/06/11 08:39:42;;;;;;;11.17;6.70;;;;;;;;;;782182;179;915546;-76
2022/06/11 08:42:08;;;;;;;5.30;4.10;;;;;;;;;;781058;179;771679;-79
2022/06/11 08:44:33;;;;;;;5.13;3.77;;;;;;;;;;781833;179;817026;-76
2022/06/11 08:47:00;;;;;;;9.90;5.30;;;;;;;;;;782169;178;919162;-75
2022/06/11 08:49:28;;;;;;;5.10;3.63;;;;;;;;;;783180;178;623462;-75
2022/06/11 08:51:55;;;;;;;6.00;3.10;;;;;;;;;;781901;178;814786;-78
2022/06/11 08:54:20;;;;;;;5.10;3.30;;;;;;;;;;780799;178;729170;-81
2022/06/11 08:56:49;;;;;;;13.30;4.70;;;;;;;;;;787392;178;615222;-76
2022/06/11 08:59:21;;;;;;;5.80;3.13;;;;;;;;;;782678;178;916351;-74
2022/06/11 09:01:47;;;;;;;6.97;4.20;;;;;;;;;;778339;178;911699;-72
2022/06/11 09:04:18;;;;;;;5.50;3.17;;;;;;;;;;781205;178;804640;-78
2022/06/11 09:06:50;;;;;;;5.10;3.00;;;;;;;;;;783972;179;915301;-80
2022/06/11 09:09:16;;;;;;;5.07;3.17;;;;;;;;;;782933;179;623720;-77
2022/06/11 09:11:44;;;;;;;5.30;3.67;;;;;;;;;;781339;179;643284;-76
2022/06/11 09:14:23;;;;;;;6.77;3.17;;;;;;;;;;781380;179;639472;-78
2022/06/11 09:16:50;;;;;;;14.10;8.63;;;;;;;;;;779109;179;915158;-76
2022/06/11 09:19:20;;;;;;;7.60;4.43;;;;;;;;;;785612;179;660472;-76
2022/06/11 09:22:05;;;;;;;14.73;9.33;;;;;;;;;;782735;179;625038;-75
2022/06/11 09:24:33;;;;;;;5.40;2.50;;;;;;;;;;778861;179;632411;-75
2022/06/11 09:27:00;;;;;;;5.77;4.53;;;;;;;;;;783216;179;626130;-75
2022/06/11 09:29:25;;;;;;;6.00;4.90;;;;;;;;;;782227;179;751400;-80
2022/06/11 09:31:55;;;;;;;11.40;7.20;;;;;;;;;;786901;179;717124;-75
2022/06/11 09:34:27;;;;;;;6.70;4.83;;;;;;;;;;783528;179;652714;-73
2022/06/11 09:37:01;;;;;;;8.07;4.63;;;;;;;;;;782976;179;616002;-76
2022/06/11 09:39:29;;;;;;;4.60;3.53;;;;;;;;;;782856;179;632477;-76
2022/06/11 09:41:56;;;;;;;5.83;3.33;;;;;;;;;;784233;179;624804;-75
2022/06/11 09:44:28;;;;;;;5.43;3.63;;;;;;;;;;782727;179;634142;-78
2022/06/11 09:46:58;;;;;;;15.50;10.70;;;;;;;;;;783141;179;622310;-76
2022/06/11 09:49:27;;;;;;;6.60;3.97;;;;;;;;;;781945;179;634872;-75
2022/06/11 09:51:54;;;;;;;14.80;9.53;;;;;;;;;;782346;179;684482;-75
2022/06/11 09:54:20;;;;;;;6.47;3.70;;;;;;;;;;777477;179;626457;-74
2022/06/11 09:56:50;;;;;;;26.80;12.90;;;;;;;;;;781300;177;630046;-73
2022/06/11 09:59:18;;;;;;;11.93;9.30;;;;;;;;;;782359;178;624066;-74
2022/06/11 10:01:44;;;;;;;5.90;4.00;;;;;;;;;;787327;178;625112;-75
2022/06/11 10:04:10;;;;;;;7.83;2.50;;;;;;;;;;784432;178;705286;-73
2022/06/11 10:06:36;;;;;;;6.77;2.93;;;;;;;;;;784395;178;770098;-76
2022/06/11 10:09:02;;;;;;;4.33;2.90;;;;;;;;;;780775;178;916518;-75
2022/06/11 10:11:28;;;;;;;5.30;3.00;;;;;;;;;;783173;178;655559;-73
2022/06/11 10:14:28;;;;;;;10.00;6.13;;;;;;;;;;782165;178;937034;-73
2022/06/11 10:16:29;;;;;;;32.53;21.13;;;;;;;;;;779972;178;808125;-75
2022/06/11 10:18:55;;;;;;;13.38;7.28;;;;;;;;;;780146;179;918668;-74
2022/06/11 10:21:21;;;;;;;17.57;10.13;;;;;;;;;;775827;179;941282;-73
2022/06/11 10:23:48;;;;;;;22.97;12.27;;;;;;;;;;781960;179;815964;-75
2022/06/11 10:26:18;;;;;;;10.80;3.60;;;;;;;;;;783032;179;636237;-75
2022/06/11 10:28:49;;;;;;;16.00;6.90;;;;;;;;;;787952;179;635672;-75
2022/06/11 10:31:16;;;;;;;6.47;3.87;;;;;;;;;;785190;179;630475;-76
2022/06/11 10:33:58;;;;;;;5.20;2.53;;;;;;;;;;776896;179;681413;-76
2022/06/11 10:36:25;;;;;;;3.73;2.33;;;;;;;;;;783409;179;917323;-75
2022/06/11 10:39:07;;;;;;;11.83;3.80;;;;;;;;;;780070;179;918407;-71
2022/06/11 10:41:34;;;;;;;5.60;2.27;;;;;;;;;;779838;179;911956;-74
2022/06/11 10:44:04;;;;;;;8.10;5.70;;;;;;;;;;785635;179;918984;-74
2022/06/11 10:46:30;;;;;;;13.13;6.97;;;;;;;;;;777307;179;919214;-77
2022/06/11 10:48:56;;;;;;;3.80;2.57;;;;;;;;;;777517;179;917774;-73
2022/06/11 10:51:22;;;;;;;8.23;4.18;;;;;;;;;;783450;179;920865;-71
2022/06/11 10:53:48;;;;;;;7.50;2.97;;;;;;;;;;781917;179;627478;-72
2022/06/11 10:56:17;;;;;;;5.90;2.63;;;;;;;;;;783560;179;646891;-71
2022/06/11 10:58:43;;;;;;;12.33;2.10;;;;;;;;;;783145;179;629387;-71
2022/06/11 11:01:09;;;;;;;7.30;3.33;;;;;;;;;;787330;179;671869;-72
2022/06/11 11:03:36;;;;;;;7.93;3.80;;;;;;;;;;781148;179;917370;-76
2022/06/11 11:06:04;;;;;;;11.33;6.27;;;;;;;;;;783067;179;634568;-71
2022/06/11 11:08:30;;;;;;;7.13;4.50;;;;;;;;;;782378;179;626645;-72
2022/06/11 11:10:56;;;;;;;6.77;3.67;;;;;;;;;;782613;178;631030;-75
2022/06/11 11:13:22;;;;;;;8.00;3.60;;;;;;;;;;782411;178;631909;-73
2022/06/11 11:15:48;;;;;;;8.37;3.47;;;;;;;;;;782880;178;918040;-74
2022/06/11 11:18:17;;;;;;;6.93;3.10;;;;;;;;;;784315;178;919146;-74
2022/06/11 11:20:43;;;;;;;6.20;2.80;;;;;;;;;;779640;178;916997;-74
2022/06/11 11:23:19;;;;;;;4.90;2.00;;;;;;;;;;778743;178;935449;-74
2022/06/11 11:25:46;;;;;;;5.03;2.27;;;;;;;;;;782016;178;629705;-75
2022/06/11 11:28:14;;;;;;;6.63;2.63;;;;;;;;;;785691;179;713380;-73
2022/06/11 11:30:40;;;;;;;3.57;2.20;;;;;;;;;;781703;179;913086;-72
2022/06/11 11:33:11;;;;;;;5.00;2.77;;;;;;;;;;778858;179;918705;-73
2022/06/11 11:35:38;;;;;;;5.37;2.43;;;;;;;;;;782518;179;628016;-73
2022/06/11 11:38:09;;;;;;;3.73;2.27;;;;;;;;;;785480;179;630630;-75
2022/06/11 11:40:35;;;;;;;4.73;2.30;;;;;;;;;;782293;179;624592;-73
2022/06/11 11:43:05;;;;;;;8.00;3.37;;;;;;;;;;779935;179;918972;-74
2022/06/11 11:45:37;;;;;;;4.10;2.67;;;;;;;;;;781000;179;815561;-76
2022/06/11 11:48:03;;;;;;;8.20;2.97;;;;;;;;;;784791;179;622530;-72
2022/06/11 11:50:28;;;;;;;5.03;2.20;;;;;;;;;;777969;179;918853;-72
2022/06/11 11:52:55;;;;;;;5.13;2.50;;;;;;;;;;784091;179;623845;-75
2022/06/11 11:55:21;;;;;;;6.10;2.87;;;;;;;;;;782375;179;625255;-72
2022/06/11 11:57:48;;;;;;;6.07;2.67;;;;;;;;;;777150;179;621247;-74
2022/06/11 12:00:29;;;;;;;6.23;2.43;;;;;;;;;;782022;179;625160;-72
2022/06/11 12:02:55;;;;;;;3.93;2.53;;;;;;;;;;782677;179;653495;-74
2022/06/11 12:05:22;;;;;;;4.30;2.97;;;;;;;;;;783008;179;629306;-72
2022/06/11 12:07:47;;;;;;;4.30;2.60;;;;;;;;;;788170;179;608997;-73
2022/06/11 12:10:18;;;;;;;4.72;3.20;;;;;;;;;;778549;179;915675;-73
2022/06/11 12:12:45;;;;;;;10.00;3.13;;;;;;;;;;782479;179;630225;-69
2022/06/11 12:15:15;;;;;;;4.70;2.80;;;;;;;;;;784983;179;621488;-73
2022/06/11 12:17:44;;;;;;;8.47;3.10;;;;;;;;;;781971;179;630984;-71
2022/06/11 12:20:12;;;;;;;7.93;2.70;;;;;;;;;;781554;177;632888;-72
2022/06/11 12:22:40;;;;;;;6.33;3.80;;;;;;;;;;783822;178;628952;-72
2022/06/11 12:25:06;;;;;;;4.82;3.47;;;;;;;;;;782914;178;918726;-74
2022/06/11 12:27:32;;;;;;;13.07;4.20;;;;;;;;;;779072;178;630185;-72
2022/06/11 12:30:01;;;;;;;7.60;2.83;;;;;;;;;;782465;178;631364;-73
2022/06/11 12:32:24;;;;;;;8.13;3.13;;;;;;;;;;782529;178;630472;-73
2022/06/11 12:34:51;;;;;;;6.40;3.23;;;;;;;;;;787830;178;631270;-75
2022/06/11 12:37:26;;;;;;;4.97;2.87;;;;;;;;;;781935;178;625954;-74
2022/06/11 12:39:53;;;;;;;7.10;2.67;;;;;;;;;;784491;179;631370;-71
2022/06/11 12:42:20;;;;;;;3.00;2.20;;;;;;;;;;782978;179;657862;-70
2022/06/11 12:45:00;;;;;;;3.90;2.33;;;;;;;;;;785181;179;627125;-73
2022/06/11 12:47:32;;;;;;;7.60;2.90;;;;;;;;;;779110;179;634033;-70
2022/06/11 12:50:02;;;;;;;4.80;2.40;;;;;;;;;;782029;179;624170;-71
2022/06/11 12:52:28;;;;;;;6.40;2.90;;;;;;;;;;780980;179;625922;-70
2022/06/11 12:54:57;;;;;;;4.30;2.53;;;;;;;;;;781777;179;627820;-72
2022/06/11 12:57:38;;;;;;;4.90;2.40;;;;;;;;;;785739;179;613682;-73
2022/06/11 13:00:05;;;;;;;10.70;7.93;;;;;;;;;;780964;179;627983;-73
2022/06/11 13:02:42;;;;;;;7.13;3.10;;;;;;;;;;780310;179;797854;-72
2022/06/11 13:05:24;;;;;;;4.17;2.60;;;;;;;;;;780952;179;649264;-75
2022/06/11 13:07:50;;;;;;;6.63;3.03;;;;;;;;;;780276;179;691741;-73
2022/06/11 13:10:21;;;;;;;8.30;4.07;;;;;;;;;;779293;179;642397;-75
2022/06/11 13:12:51;;;;;;;5.17;2.83;;;;;;;;;;783160;179;917775;-70
2022/06/11 13:15:23;;;;;;;4.80;2.67;;;;;;;;;;781958;179;816570;-72
2022/06/11 13:17:58;;;;;;;7.10;2.77;;;;;;;;;;781089;179;770078;-75
2022/06/11 13:20:35;;;;;;;6.33;3.00;;;;;;;;;;782207;179;630183;-73
2022/06/11 13:23:02;;;;;;;8.63;2.80;;;;;;;;;;781010;179;626093;-70
2022/06/11 13:25:43;;;;;;;3.10;2.40;;;;;;;;;;785041;179;637394;-73
2022/06/11 13:28:08;;;;;;;7.50;2.87;;;;;;;;;;777385;179;920594;-76
2022/06/11 13:30:39;;;;;;;5.30;3.13;;;;;;;;;;765495;181;633734;-74
2022/06/11 13:33:05;;;;;;;9.57;2.80;;;;;;;;;;780758;178;915522;-74
2022/06/11 13:35:38;;;;;;;6.97;2.90;;;;;;;;;;784808;178;634601;-76
2022/06/11 13:38:04;;;;;;;4.40;2.30;;;;;;;;;;788147;178;625811;-74
2022/06/11 13:40:35;;;;;;;12.20;3.83;;;;;;;;;;784045;178;641421;-74
2022/06/11 13:43:02;;;;;;;5.20;2.70;;;;;;;;;;783755;178;630650;-74
2022/06/11 13:45:29;;;;;;;5.47;2.53;;;;;;;;;;781050;178;711987;-72
2022/06/11 13:47:55;;;;;;;8.10;2.67;;;;;;;;;;787232;178;629702;-74
2022/06/11 13:50:27;;;;;;;8.80;2.73;;;;;;;;;;782092;178;922390;-77
2022/06/11 13:55:24;;;;;;;6.63;2.00;;;;;;;;;;783525;179;630190;-75
2022/06/11 13:57:51;;;;;;;4.03;2.37;;;;;;;;;;785381;179;620981;-70
2022/06/11 14:00:18;;;;;;;5.77;2.33;;;;;;;;;;780227;179;814701;-72
2022/06/11 14:02:50;;;;;;;6.57;2.90;;;;;;;;;;782200;179;638020;-69
2022/06/11 14:05:16;;;;;;;6.67;2.40;;;;;;;;;;779978;179;905916;-69
2022/06/11 14:07:42;;;;;;;3.70;2.97;;;;;;;;;;786627;179;619810;-71
2022/06/11 14:10:25;;;;;;;4.50;2.50;;;;;;;;;;780651;179;807511;-69
2022/06/11 14:12:52;;;;;;;4.33;2.87;;;;;;;;;;779663;179;916280;-75
2022/06/11 14:15:22;;;;;;;4.00;3.17;;;;;;;;;;773511;179;646841;-72
2022/06/11 14:17:51;;;;;;;5.30;2.83;;;;;;;;;;782857;179;624365;-77
2022/06/11 14:20:30;;;;;;;6.57;3.90;;;;;;;;;;786786;179;617590;-71
2022/06/11 14:22:56;;;;;;;12.23;3.53;;;;;;;;;;783018;179;623480;-74
2022/06/11 14:25:27;;;;;;;3.70;2.90;;;;;;;;;;781360;179;617382;-70
2022/06/11 14:27:53;;;;;;;3.60;2.90;;;;;;;;;;779872;179;655731;-74